Time;durP1;ratioP1;P1;durP2;ratioP2;P2;SDS_P1;SDS_P2;PMS_P1;PMS_P2;Temp;Humidity;BMP_temperature;BMP_pressure;BME280_temperature;BME280_humidity;BME280_pressure;Samples;Min_cycle;Max_cycle;Signal;HPM_P1;HPM_P2
2021/09/01 00:00:28;;;;;;;25.85;7.50;;;;;;;17.11;58.39;95044.72;4933370;29;20099;-77
2021/09/01 00:02:55;;;;;;;21.08;5.82;;;;;;;17.12;56.72;95045.50;4933246;29;20135;-77
2021/09/01 00:05:20;;;;;;;4.03;3.63;;;;;;;17.12;54.57;95054.16;4933453;29;20040;-77
2021/09/01 00:07:47;;;;;;;3.65;2.75;;;;;;;17.16;53.74;95051.78;4933634;29;20091;-77
2021/09/01 00:10:13;;;;;;;4.30;3.20;;;;;;;17.21;53.78;95055.19;4933794;29;20040;-77
2021/09/01 00:12:38;;;;;;;9.32;3.22;;;;;;;17.25;53.53;95060.72;4932099;29;20140;-77
2021/09/01 00:15:04;;;;;;;3.95;3.10;;;;;;;17.22;53.42;95067.28;4929870;29;20036;-78
2021/09/01 00:17:30;;;;;;;4.22;3.33;;;;;;;17.25;53.39;95061.50;4933777;29;20043;-77
2021/09/01 00:20:08;;;;;;;5.45;2.95;;;;;;;17.23;52.97;95070.69;4933361;29;20075;-77
2021/09/01 00:22:34;;;;;;;3.38;3.08;;;;;;;17.29;53.41;95074.91;4932182;29;20042;-77
2021/09/01 00:24:59;;;;;;;5.55;3.05;;;;;;;17.29;53.75;95080.94;4933744;29;20028;-77
2021/09/01 00:27:27;;;;;;;3.10;2.90;;;;;;;17.26;53.95;95081.47;4933317;29;20036;-78
2021/09/01 00:29:53;;;;;;;3.47;2.92;;;;;;;17.24;54.14;95086.19;4931423;29;20474;-77
2021/09/01 00:32:18;;;;;;;5.35;3.30;;;;;;;17.22;53.70;95077.78;4933187;29;20032;-77
2021/09/01 00:35:09;;;;;;;;;;;;;;;;;;;;;
2021/09/01 00:37:35;;;;;;;3.20;2.83;;;;;;;17.21;53.78;95081.47;4945819;28;20541;-78
2021/09/01 00:40:01;;;;;;;4.90;3.20;;;;;;;17.21;53.70;95093.81;4933503;29;20031;-77
2021/09/01 00:42:26;;;;;;;7.35;3.40;;;;;;;17.22;52.95;95084.88;4933097;29;20512;-77
2021/09/01 00:44:51;;;;;;;3.60;3.20;;;;;;;17.21;53.15;95084.09;4949583;29;20036;-78
2021/09/01 00:47:23;;;;;;;3.53;2.78;;;;;;;17.24;52.32;95083.56;4932213;29;20043;-78
2021/09/01 00:49:52;;;;;;;3.92;3.17;;;;;;;17.25;52.35;95098.28;4937453;29;20043;-78
2021/09/01 00:52:17;;;;;;;4.90;3.13;;;;;;;17.25;52.17;95090.41;4934261;29;20058;-78
2021/09/01 00:54:42;;;;;;;10.07;3.40;;;;;;;17.27;52.11;95093.56;4932594;29;20392;-78
2021/09/01 00:57:08;;;;;;;4.22;3.83;;;;;;;17.30;51.79;95097.50;4947583;28;20400;-78
2021/09/01 00:59:38;;;;;;;8.18;2.80;;;;;;;17.29;51.88;95095.91;4931873;29;20039;-78
2021/09/01 01:02:04;;;;;;;3.72;3.42;;;;;;;17.29;51.93;95101.97;4916055;29;20075;-78
2021/09/01 01:04:29;;;;;;;4.75;4.03;;;;;;;17.29;52.11;95096.72;4932488;29;20124;-78
2021/09/01 01:07:05;;;;;;;5.57;3.40;;;;;;;17.32;51.67;95090.91;4918457;29;20422;-78
2021/09/01 01:09:48;;;;;;;3.75;3.08;;;;;;;17.35;51.53;95094.84;4935405;29;20044;-78
2021/09/01 01:12:19;;;;;;;6.15;3.05;;;;;;;17.41;51.48;95104.31;4935630;29;20084;-78
2021/09/01 01:14:50;;;;;;;4.32;3.38;;;;;;;17.45;51.35;95096.66;4938779;29;20066;-78
2021/09/01 01:17:16;;;;;;;2.83;2.63;;;;;;;17.50;51.26;95096.66;4938920;29;20512;-78
2021/09/01 01:19:44;;;;;;;5.20;2.53;;;;;;;17.54;51.00;95092.41;4939261;29;20046;-78
2021/09/01 01:22:11;;;;;;;2.42;2.22;;;;;;;17.58;50.81;95089.00;4936758;29;20051;-78
2021/09/01 01:25:00;;;;;;;3.08;2.72;;;;;;;17.61;50.74;95092.94;4935271;29;20086;-78
2021/09/01 01:27:30;;;;;;;5.13;2.30;;;;;;;17.66;50.51;95090.28;4937102;29;20046;-78
2021/09/01 01:30:03;;;;;;;6.97;2.25;;;;;;;17.65;51.00;95094.75;4937803;29;20190;-78
2021/09/01 01:32:29;;;;;;;2.95;1.98;;;;;;;17.69;50.85;95095.03;4936515;29;20043;-78
2021/09/01 01:34:54;;;;;;;3.83;2.40;;;;;;;17.70;51.08;95091.34;4951030;29;20039;-77
2021/09/01 01:37:20;;;;;;;1.95;1.85;;;;;;;17.66;51.04;95095.53;4934447;29;20475;-77
2021/09/01 01:39:45;;;;;;;3.00;2.33;;;;;;;17.66;51.11;95090.28;4936003;29;20504;-77
2021/09/01 01:42:11;;;;;;;7.05;2.55;;;;;;;17.67;51.00;95091.84;4937159;29;20429;-77
2021/09/01 01:44:36;;;;;;;4.05;3.25;;;;;;;17.66;51.06;95091.06;4935447;29;20546;-78
2021/09/01 01:47:11;;;;;;;6.82;4.18;;;;;;;17.69;51.60;95087.13;4935888;29;20047;-77
2021/09/01 01:49:38;;;;;;;18.92;5.95;;;;;;;17.75;51.20;95086.06;4935051;29;20063;-78
2021/09/01 01:52:16;;;;;;;15.68;6.88;;;;;;;17.71;51.57;95069.25;4935879;29;20492;-78
2021/09/01 01:54:44;;;;;;;11.90;6.45;;;;;;;17.83;51.32;95084.72;4936567;29;20111;-77
2021/09/01 01:57:09;;;;;;;11.02;5.75;;;;;;;17.86;51.20;95082.31;4935601;29;20424;-78
2021/09/01 01:59:54;;;;;;;14.60;6.47;;;;;;;17.86;51.53;95074.44;4934822;29;20056;-78
2021/09/01 02:04:54;;;;;;;8.15;5.22;;;;;;;17.93;51.45;95080.19;4986534;23;20039;-77
2021/09/01 02:07:20;;;;;;;8.63;5.18;;;;;;;17.93;51.79;95072.31;4973955;28;20038;-78
2021/09/01 02:09:45;;;;;;;7.15;4.63;;;;;;;17.96;51.66;95079.66;4973771;28;20434;-77
2021/09/01 02:12:11;;;;;;;6.53;3.72;;;;;;;17.94;51.80;95067.84;4974197;28;20039;-78
2021/09/01 02:14:36;;;;;;;6.15;3.33;;;;;;;17.90;51.82;95072.84;4974119;28;20039;-78
2021/09/01 02:17:08;;;;;;;6.47;3.70;;;;;;;17.89;52.32;95073.88;4955772;28;20030;-78
2021/09/01 02:19:34;;;;;;;6.72;4.80;;;;;;;17.85;52.26;95072.88;4972727;28;20039;-78
2021/09/01 02:21:59;;;;;;;6.35;4.25;;;;;;;17.83;52.48;95064.47;4971378;28;20046;-77
2021/09/01 02:24:31;;;;;;;10.85;4.40;;;;;;;17.82;52.29;95073.41;4973780;28;20033;-78
2021/09/01 02:26:59;;;;;;;11.80;5.55;;;;;;;17.78;52.65;95071.59;4985923;23;20054;-78
2021/09/01 02:29:25;;;;;;;14.05;6.13;;;;;;;17.78;52.92;95076.84;4973710;28;20109;-78
2021/09/01 02:31:50;;;;;;;14.43;6.00;;;;;;;17.70;52.89;95075.56;4973828;28;20426;-78
2021/09/01 02:34:16;;;;;;;19.85;6.78;;;;;;;17.68;53.68;95075.03;4973736;28;20495;-78
2021/09/01 02:36:41;;;;;;;12.45;5.97;;;;;;;17.69;53.64;95071.34;4974613;28;20038;-78
2021/09/01 02:39:15;;;;;;;17.40;5.95;;;;;;;17.64;54.09;95082.66;4973811;28;20035;-78
2021/09/01 02:41:40;;;;;;;13.60;5.25;;;;;;;17.60;54.08;95075.59;4941140;28;20027;-79
2021/09/01 02:44:06;;;;;;;11.82;3.65;;;;;;;17.62;53.63;95084.00;4975339;28;20171;-78
2021/09/01 02:46:31;;;;;;;11.68;4.00;;;;;;;17.59;54.02;95074.00;4977136;28;20035;-79
2021/09/01 02:48:56;;;;;;;9.77;4.00;;;;;;;17.59;53.82;95084.53;4973213;28;20038;-78
2021/09/01 02:51:22;;;;;;;11.88;4.53;;;;;;;17.56;54.34;95079.78;4973727;28;20034;-78
2021/09/01 02:53:47;;;;;;;20.23;5.70;;;;;;;17.54;54.81;95081.91;4973255;28;20030;-78
2021/09/01 02:56:13;;;;;;;19.17;6.03;;;;;;;17.54;55.66;95093.19;4973481;28;20490;-78
2021/09/01 02:58:38;;;;;;;10.63;4.90;;;;;;;17.54;55.22;95092.41;4974381;28;20486;-78
2021/09/01 03:03:35;;;;;;;8.70;4.68;;;;;;;17.51;55.18;95095.59;4963952;23;20082;-78
2021/09/01 03:06:00;;;;;;;10.15;4.15;;;;;;;17.50;55.30;95094.00;4956669;28;20515;-78
2021/09/01 03:08:25;;;;;;;13.45;3.47;;;;;;;17.45;54.15;95094.81;4957927;28;20456;-78
2021/09/01 03:10:51;;;;;;;9.30;3.20;;;;;;;17.46;53.94;95101.66;4973599;28;20035;-79
2021/09/01 03:13:16;;;;;;;6.20;2.92;;;;;;;17.46;54.13;95095.63;4957366;29;20522;-78
2021/09/01 03:16:05;;;;;;;11.07;3.83;;;;;;;17.48;54.37;95101.38;4958072;28;20031;-79
2021/09/01 03:18:30;;;;;;;18.95;4.70;;;;;;;17.47;54.63;95094.56;4958981;28;20499;-78
2021/09/01 03:20:55;;;;;;;10.82;4.10;;;;;;;17.47;55.14;95099.81;4958614;28;20031;-78
2021/09/01 03:23:21;;;;;;;14.50;4.10;;;;;;;17.44;55.39;95103.78;4956337;28;20047;-79
2021/09/01 03:25:54;;;;;;;18.92;4.90;;;;;;;17.42;55.69;95100.63;4951268;29;20132;-77
2021/09/01 03:28:19;;;;;;;6.85;3.90;;;;;;;17.34;55.52;95099.31;4956008;28;20496;-78
2021/09/01 03:30:45;;;;;;;12.88;3.70;;;;;;;17.29;55.63;95106.44;4953473;29;20086;-79
2021/09/01 03:33:10;;;;;;;14.18;4.35;;;;;;;17.25;55.57;95106.19;4953768;28;20106;-78
2021/09/01 03:35:36;;;;;;;5.53;4.10;;;;;;;17.21;55.56;95105.13;4953930;28;20086;-77
2021/09/01 03:38:01;;;;;;;14.27;4.28;;;;;;;17.22;55.66;95117.19;4952736;28;20455;-77
2021/09/01 03:40:27;;;;;;;5.75;2.80;;;;;;;17.22;55.33;95119.84;4951998;28;20032;-78
2021/09/01 03:43:02;;;;;;;4.20;2.95;;;;;;;17.21;54.92;95126.13;4952598;28;20039;-79
2021/09/01 03:45:30;;;;;;;3.40;2.85;;;;;;;17.13;55.03;95126.69;4949548;23;20482;-78
2021/09/01 03:47:56;;;;;;;4.57;3.28;;;;;;;17.10;55.31;95124.59;4953261;28;20527;-77
2021/09/01 03:50:21;;;;;;;3.20;3.00;;;;;;;17.08;55.31;95116.16;4954689;29;20035;-78
2021/09/01 03:52:46;;;;;;;3.13;2.80;;;;;;;17.13;55.30;95120.66;4946902;28;20051;-78
2021/09/01 03:55:12;;;;;;;14.07;2.90;;;;;;;17.15;55.00;95124.59;4935176;29;20035;-78
2021/09/01 03:57:38;;;;;;;4.85;3.60;;;;;;;17.21;54.88;95126.13;4951728;29;20040;-78
2021/09/01 04:00:04;;;;;;;4.38;2.90;;;;;;;17.27;54.60;95122.47;4937187;29;20392;-78
2021/09/01 04:02:30;;;;;;;3.75;3.05;;;;;;;17.31;54.97;95130.59;4944847;29;20039;-79
2021/09/01 04:05:24;;;;;;;19.58;4.75;;;;;;;17.36;55.48;95127.97;4971865;28;20035;-78
2021/09/01 04:07:50;;;;;;;36.38;5.95;;;;;;;17.47;55.70;95132.16;4965773;28;20083;-76
2021/09/01 04:10:18;;;;;;;38.45;6.32;;;;;;;17.63;55.65;95138.16;4953242;29;20431;-78
2021/09/01 04:12:44;;;;;;;24.85;4.88;;;;;;;17.85;55.18;95130.75;4954370;28;20039;-78
2021/09/01 04:15:09;;;;;;;39.25;6.30;;;;;;;18.06;54.69;95128.81;4952167;29;20495;-77
2021/09/01 04:17:35;;;;;;;32.55;5.00;;;;;;;18.27;53.89;95121.59;4952852;28;20578;-77
2021/09/01 04:20:00;;;;;;;40.47;7.03;;;;;;;18.34;54.01;95124.72;4952578;29;20043;-78
2021/09/01 04:22:25;;;;;;;51.05;6.90;;;;;;;18.40;54.07;95131.53;4929432;29;20036;-77
2021/09/01 04:24:51;;;;;;;50.20;8.13;;;;;;;18.68;53.82;95126.63;4933405;29;20032;-79
2021/09/01 04:27:16;;;;;;;62.95;7.07;;;;;;;19.45;51.72;95124.91;4933454;29;20043;-77
2021/09/01 04:29:42;;;;;;;29.38;5.85;;;;;;;20.57;47.85;95128.88;4932379;29;20050;-78
2021/09/01 04:32:07;;;;;;;25.27;5.57;;;;;;;21.71;44.99;95132.81;4947608;28;20032;-77
2021/09/01 04:34:33;;;;;;;49.92;6.63;;;;;;;22.76;42.72;95122.94;4952480;29;20066;-77
2021/09/01 04:36:58;;;;;;;46.80;7.15;;;;;;;24.03;40.03;95121.59;4938511;29;20534;-77
2021/09/01 04:39:23;;;;;;;46.85;8.20;;;;;;;25.24;37.23;95121.69;4950399;28;20038;-76
2021/09/01 04:41:49;;;;;;;37.65;6.65;;;;;;;26.41;35.50;95130.94;4955229;28;20042;-77
2021/09/01 04:44:14;;;;;;;52.22;8.50;;;;;;;27.50;33.32;95123.41;4944225;28;20475;-78
2021/09/01 04:46:40;;;;;;;45.15;7.65;;;;;;;28.63;31.72;95130.75;4940369;29;20043;-78
2021/09/01 04:49:05;;;;;;;53.30;6.97;;;;;;;29.63;29.48;95125.47;4940417;29;20418;-78
2021/09/01 04:51:31;;;;;;;35.75;5.55;;;;;;;30.69;27.94;95134.41;4939492;29;20047;-79
2021/09/01 04:53:56;;;;;;;16.10;4.78;;;;;;;31.58;25.97;95139.63;4937503;29;20048;-78
2021/09/01 04:56:22;;;;;;;23.35;3.80;;;;;;;32.48;24.96;95125.66;4938392;29;20108;-78
2021/09/01 04:58:47;;;;;;;19.90;4.10;;;;;;;33.24;23.96;95126.25;4951815;29;20031;-77
2021/09/01 05:01:12;;;;;;;9.13;2.70;;;;;;;34.03;22.18;95127.00;4968733;28;20036;-77
2021/09/01 05:03:38;;;;;;;6.95;2.45;;;;;;;34.65;21.42;95124.31;4970510;29;20050;-77
2021/09/01 05:06:03;;;;;;;6.38;2.65;;;;;;;35.47;20.81;95125.41;4974339;28;20042;-78
2021/09/01 05:08:29;;;;;;;14.52;2.13;;;;;;;35.95;19.42;95133.22;4949070;29;20036;-79
2021/09/01 05:10:54;;;;;;;9.05;2.30;;;;;;;36.51;18.94;95128.94;4934509;29;20043;-79
2021/09/01 05:13:23;;;;;;;14.70;2.15;;;;;;;37.22;18.71;95131.38;4938942;29;20039;-77
2021/09/01 05:16:23;;;;;;;7.85;2.20;;;;;;;37.85;17.62;95135.69;4935588;29;20043;-78
2021/09/01 05:18:48;;;;;;;4.95;1.80;;;;;;;38.32;17.40;95127.19;4935292;29;20055;-79
2021/09/01 05:21:14;;;;;;;7.43;1.50;;;;;;;39.03;16.63;95132.59;4958973;28;20590;-79
2021/09/01 05:23:41;;;;;;;5.45;1.67;;;;;;;39.43;16.28;95132.13;4956911;29;20241;-78
2021/09/01 05:26:06;;;;;;;8.70;1.60;;;;;;;40.13;15.94;95137.72;4972407;28;20058;-85
2021/09/01 05:28:34;;;;;;;3.85;1.50;;;;;;;41.00;15.19;95128.34;4952028;29;20027;-78
2021/09/01 05:31:06;;;;;;;8.45;1.88;;;;;;;41.77;14.38;95131.78;4937903;29;20036;-79
2021/09/01 05:33:34;;;;;;;7.68;1.65;;;;;;;42.33;13.74;95137.09;4920664;29;20078;-79
2021/09/01 05:35:59;;;;;;;4.80;1.70;;;;;;;42.35;13.87;95134.69;4933899;29;20090;-77
2021/09/01 05:38:25;;;;;;;9.95;1.63;;;;;;;42.85;12.90;95136.88;4933228;29;20036;-78
2021/09/01 05:40:51;;;;;;;9.55;1.75;;;;;;;42.82;13.20;95135.78;4933799;29;20126;-78
2021/09/01 05:43:17;;;;;;;3.95;1.77;;;;;;;43.11;13.20;95135.75;4931852;29;20039;-78
2021/09/01 05:45:47;;;;;;;10.93;1.92;;;;;;;43.28;12.79;95136.44;4933823;29;20036;-78
2021/09/01 05:48:13;;;;;;;10.73;1.50;;;;;;;43.57;12.66;95130.88;4949300;29;20563;-80
2021/09/01 05:50:42;;;;;;;8.88;1.30;;;;;;;42.93;12.71;95129.25;4934677;29;20028;-77
2021/09/01 05:53:10;;;;;;;13.23;1.50;;;;;;;42.36;13.53;95130.75;4940486;29;20500;-78
2021/09/01 05:55:40;;;;;;;3.60;1.60;;;;;;;40.87;14.62;95130.19;4957179;29;20075;-83
2021/09/01 05:58:06;;;;;;;2.88;1.52;;;;;;;39.42;15.58;95120.47;4954944;29;20052;-79
2021/09/01 06:00:35;;;;;;;2.17;1.58;;;;;;;38.38;16.41;95133.69;4941209;29;20035;-79
2021/09/01 06:03:27;;;;;;;4.55;1.85;;;;;;;37.84;17.65;95127.94;4941950;29;20044;-79
2021/09/01 06:05:56;;;;;;;4.20;1.90;;;;;;;36.85;18.29;95124.59;4942962;29;20044;-79
2021/09/01 06:08:30;;;;;;;6.22;1.30;;;;;;;35.93;18.41;95130.13;4942606;29;20120;-79
2021/09/01 06:10:56;;;;;;;11.43;1.33;;;;;;;34.78;19.26;95130.94;4956424;29;20039;-79
2021/09/01 06:13:21;;;;;;;2.60;1.10;;;;;;;34.13;20.01;95123.59;4956983;29;20044;-78
2021/09/01 06:15:56;;;;;;;3.10;1.60;;;;;;;33.55;20.70;95126.97;4977968;23;20075;31
2021/09/01 06:18:22;;;;;;;2.05;1.30;;;;;;;33.27;21.85;95130.88;4940960;29;20047;-79
2021/09/01 06:20:47;;;;;;;7.55;1.20;;;;;;;32.92;21.62;95131.28;4942039;29;20028;-79
2021/09/01 06:23:12;;;;;;;7.53;1.83;;;;;;;32.48;22.70;95117.59;4908228;29;20043;-79
2021/09/01 06:25:38;;;;;;;7.38;1.77;;;;;;;31.69;23.58;95139.00;4925173;29;20113;-79
2021/09/01 06:28:24;;;;;;;4.15;1.80;;;;;;;30.71;23.89;95138.31;4924023;29;20091;-78
2021/09/01 06:30:49;;;;;;;2.58;1.70;;;;;;;30.07;25.10;95138.78;4924869;29;20139;-79
2021/09/01 06:33:14;;;;;;;2.85;1.60;;;;;;;29.15;26.40;95148.69;4925140;29;20083;-79
2021/09/01 06:35:40;;;;;;;2.72;1.70;;;;;;;28.75;27.06;95131.84;4923345;29;20068;-79
2021/09/01 06:38:06;;;;;;;5.78;2.10;;;;;;;28.54;27.19;95126.66;4907460;29;20172;-79
2021/09/01 06:40:32;;;;;;;4.72;1.63;;;;;;;28.33;28.64;95126.81;4907944;29;20559;-79
2021/09/01 06:42:57;;;;;;;1.85;1.63;;;;;;;27.98;27.95;95143.28;4907409;29;20047;-78
2021/09/01 06:45:23;;;;;;;4.85;1.77;;;;;;;27.76;28.97;95141.06;4924244;29;20043;-78
2021/09/01 06:47:52;;;;;;;6.57;1.77;;;;;;;27.63;29.48;95132.22;4923261;29;20044;-79
2021/09/01 06:50:22;;;;;;;24.02;5.93;;;;;;;27.55;29.83;95135.00;4921353;29;20040;-78
2021/09/01 06:52:48;;;;;;;3.65;2.45;;;;;;;27.57;29.79;95135.44;4922485;29;20122;-79
2021/09/01 06:55:14;;;;;;;3.38;1.70;;;;;;;27.59;29.72;95141.22;4905902;29;20052;-78
2021/09/01 06:57:40;;;;;;;2.97;1.92;;;;;;;27.20;30.11;95146.03;4922565;29;20044;-79
2021/09/01 07:00:06;;;;;;;1.70;1.60;;;;;;;26.86;30.65;95149.75;4921793;29;20044;-79
2021/09/01 07:02:32;;;;;;;4.53;1.80;;;;;;;26.60;31.40;95158.72;4921586;29;20119;-78
2021/09/01 07:04:58;;;;;;;4.93;2.25;;;;;;;26.67;32.00;95154.75;4904699;29;20500;-78
2021/09/01 07:07:23;;;;;;;19.50;2.65;;;;;;;26.70;31.64;95157.56;4905249;29;20040;-79
2021/09/01 07:09:49;;;;;;;5.38;2.22;;;;;;;26.77;32.69;95149.81;4921412;29;20040;-78
2021/09/01 07:12:14;;;;;;;8.65;1.95;;;;;;;26.74;31.67;95155.03;4904807;29;20539;-78
2021/09/01 07:14:39;;;;;;;3.30;1.80;;;;;;;26.51;32.00;95154.53;4921503;29;20032;-78
2021/09/01 07:17:05;;;;;;;1.70;1.45;;;;;;;26.58;31.55;95160.16;4921594;29;20044;-78
2021/09/01 07:19:30;;;;;;;9.70;1.70;;;;;;;26.45;31.77;95158.53;4904461;29;20047;-79
2021/09/01 07:21:57;;;;;;;9.43;1.95;;;;;;;26.27;32.90;95160.50;4921329;29;20033;-79
2021/09/01 07:24:22;;;;;;;1.50;1.33;;;;;;;26.19;32.18;95154.09;4904574;29;20532;-80
2021/09/01 07:26:48;;;;;;;5.90;1.63;;;;;;;25.97;33.18;95165.03;4918706;29;20036;-85
2021/09/01 07:29:13;;;;;;;10.32;1.73;;;;;;;26.04;32.84;95165.31;4921756;29;20035;-84
2021/09/01 07:31:38;;;;;;;5.50;2.45;;;;;;;26.16;32.44;95152.06;4922643;29;20436;-81
2021/09/01 07:34:04;;;;;;;5.68;2.40;;;;;;;26.38;32.76;95163.59;4922597;29;20028;-81
2021/09/01 07:36:30;;;;;;;3.33;2.40;;;;;;;26.55;32.35;95163.50;4905101;29;20065;-86
2021/09/01 07:38:55;;;;;;;3.03;1.92;;;;;;;26.38;31.98;95160.94;4908454;29;20051;-83
2021/09/01 07:41:37;;;;;;;6.68;2.15;;;;;;;26.42;32.60;95169.84;4907710;29;20024;-84
2021/09/01 07:44:02;;;;;;;3.90;1.97;;;;;;;26.53;32.02;95160.38;4917940;29;20084;-84
2021/09/01 07:46:28;;;;;;;3.20;1.55;;;;;;;26.58;31.48;95157.50;4922377;29;20469;-84
2021/09/01 07:48:57;;;;;;;10.95;1.58;;;;;;;26.43;32.36;95161.50;4919866;29;20047;-83
2021/09/01 07:51:23;;;;;;;8.13;2.60;;;;;;;26.36;32.97;95161.25;4904415;29;20036;-83
2021/09/01 07:53:48;;;;;;;6.60;2.35;;;;;;;26.38;32.19;95158.25;4919729;29;20046;-83
2021/09/01 07:56:14;;;;;;;3.88;2.88;;;;;;;26.35;33.36;95165.00;4919663;29;20032;-82
2021/09/01 07:58:42;;;;;;;3.83;2.17;;;;;;;26.26;33.19;95150.94;4920499;29;20063;-82
2021/09/01 08:01:07;;;;;;;3.13;2.13;;;;;;;26.38;33.75;95153.72;4901823;29;20088;-83
2021/09/01 08:03:33;;;;;;;2.40;1.60;;;;;;;26.66;32.73;95159.31;4920127;29;20040;-83
2021/09/01 08:06:00;;;;;;;3.13;1.63;;;;;;;26.60;32.64;95157.94;4921373;29;20399;-78
2021/09/01 08:08:28;;;;;;;6.15;1.50;;;;;;;26.24;32.75;95163.81;4903590;29;20040;-83
2021/09/01 08:10:54;;;;;;;1.95;1.40;;;;;;;26.00;33.45;95159.81;4922465;29;20039;-82
2021/09/01 08:13:19;;;;;;;2.50;1.65;;;;;;;25.81;33.17;95148.00;4924340;29;20091;-81
2021/09/01 08:15:47;;;;;;;1.77;1.15;;;;;;;25.48;33.25;95148.56;4924961;29;20024;-84
2021/09/01 08:18:13;;;;;;;2.13;1.40;;;;;;;25.25;33.44;95150.66;4924897;29;20044;-79
2021/09/01 08:20:38;;;;;;;6.20;2.03;;;;;;;25.01;34.64;95145.03;4919771;29;20496;-83
2021/09/01 08:23:04;;;;;;;8.10;3.05;;;;;;;25.15;34.74;95145.66;4918721;29;20032;-86
2021/09/01 08:25:30;;;;;;;3.53;1.98;;;;;;;25.20;34.31;95142.03;4902901;29;20070;-80
2021/09/01 08:27:55;;;;;;;2.35;1.70;;;;;;;25.07;33.77;95138.47;4901765;29;20047;-83
2021/09/01 08:30:21;;;;;;;3.33;1.90;;;;;;;24.82;35.05;95142.69;4901943;29;20038;-83
2021/09/01 08:32:46;;;;;;;2.78;1.50;;;;;;;24.50;35.80;95152.69;4902416;29;20109;-83
2021/09/01 08:35:13;;;;;;;1.85;1.65;;;;;;;24.38;36.10;95149.84;4901535;29;20128;-81
2021/09/01 08:37:38;;;;;;;8.15;1.75;;;;;;;24.36;36.33;95153.91;4903919;29;20074;-81
2021/09/01 08:40:06;;;;;;;5.47;1.85;;;;;;;24.28;36.16;95149.34;4901475;29;20036;-78
2021/09/01 08:42:32;;;;;;;6.15;1.75;;;;;;;24.13;36.79;95148.69;4901630;29;20145;-82
2021/09/01 08:44:57;;;;;;;1.88;1.58;;;;;;;23.97;37.10;95139.56;4900655;29;20049;-81
2021/09/01 08:47:23;;;;;;;2.58;1.60;;;;;;;23.93;36.34;95133.31;4917504;29;20417;-79
2021/09/01 08:49:48;;;;;;;1.73;1.63;;;;;;;23.89;36.67;95127.81;4917120;29;20480;-82
2021/09/01 08:52:14;;;;;;;3.00;1.60;;;;;;;23.78;37.03;95126.56;4901798;29;20115;-82
2021/09/01 08:54:40;;;;;;;10.63;1.80;;;;;;;23.66;37.83;95121.03;4900131;29;20028;-81
2021/09/01 08:57:05;;;;;;;1.67;1.40;;;;;;;23.58;37.19;95121.75;4915098;29;20100;-81
2021/09/01 08:59:31;;;;;;;5.47;1.50;;;;;;;23.53;37.83;95119.22;4915621;29;20052;-79
2021/09/01 09:01:56;;;;;;;2.00;1.70;;;;;;;23.47;37.14;95123.88;4915978;29;20036;-78
2021/09/01 09:04:27;;;;;;;6.90;1.83;;;;;;;23.49;37.41;95123.59;4898113;29;20040;-83
2021/09/01 09:06:56;;;;;;;2.55;1.52;;;;;;;23.62;37.21;95125.41;4915518;29;20036;-77
2021/09/01 09:09:26;;;;;;;2.05;1.73;;;;;;;23.73;39.29;95113.38;4897300;29;20513;-78
2021/09/01 09:11:52;;;;;;;10.93;1.60;;;;;;;23.84;38.14;95109.38;4898342;29;20040;-80
2021/09/01 09:14:20;;;;;;;4.70;1.95;;;;;;;23.91;36.88;95112.34;4886663;29;20051;-80
2021/09/01 09:16:46;;;;;;;3.47;1.58;;;;;;;23.89;37.26;95100.47;4918605;29;20042;-79
2021/09/01 09:19:13;;;;;;;1.70;1.60;;;;;;;23.79;37.05;95111.41;4899663;29;20040;-79
2021/09/01 09:21:38;;;;;;;2.42;1.80;;;;;;;23.68;37.55;95116.19;4916842;29;20091;-79
2021/09/01 09:24:17;;;;;;;6.97;1.50;;;;;;;23.60;36.91;95098.38;4898899;29;20453;-78
2021/09/01 09:26:43;;;;;;;9.80;2.03;;;;;;;23.49;37.22;95102.34;4905114;29;20555;-78
2021/09/01 09:29:18;;;;;;;7.35;1.50;;;;;;;23.25;37.51;95111.44;4906771;29;20036;-79
2021/09/01 09:31:58;;;;;;;2.20;1.40;;;;;;;23.20;39.46;95106.25;4904384;29;20036;-78
2021/09/01 09:34:35;;;;;;;3.00;1.60;;;;;;;23.13;39.11;95111.22;4900797;29;20461;-79
2021/09/01 09:37:08;;;;;;;6.55;1.90;;;;;;;23.21;39.02;95102.53;4916966;29;20036;-79
2021/09/01 09:39:49;;;;;;;8.68;1.50;;;;;;;23.25;37.34;95114.09;4918114;29;20040;-75
2021/09/01 09:42:48;;;;;;;6.88;1.58;;;;;;;23.23;37.92;95115.47;4902082;29;20044;-79
2021/09/01 09:45:26;;;;;;;2.10;1.60;;;;;;;23.29;37.30;95111.63;4891294;29;20529;-80
2021/09/01 09:47:54;;;;;;;6.28;1.55;;;;;;;23.23;37.64;95115.47;4919463;29;20044;-78
2021/09/01 09:50:20;;;;;;;1.95;1.83;;;;;;;23.12;37.47;95108.88;4916784;29;20048;-78
2021/09/01 09:52:45;;;;;;;7.18;1.83;;;;;;;23.13;37.64;95110.44;4915492;29;20032;-78
2021/09/01 09:55:18;;;;;;;1.52;1.40;;;;;;;23.28;37.47;95102.09;4900168;29;20032;-78
2021/09/01 09:57:55;;;;;;;2.95;1.77;;;;;;;23.35;37.04;95113.06;4915512;29;20392;-78
2021/09/01 10:00:21;;;;;;;10.32;1.80;;;;;;;23.31;37.24;95109.44;4899816;29;20041;-78
2021/09/01 10:02:47;;;;;;;2.85;1.40;;;;;;;23.28;36.86;95086.97;4915398;29;20048;-78
2021/09/01 10:05:14;;;;;;;1.85;1.70;;;;;;;23.32;36.72;95103.06;4899835;29;20118;-78
2021/09/01 10:07:40;;;;;;;4.15;1.70;;;;;;;23.31;37.15;95102.28;4916964;29;20518;-79
2021/09/01 10:10:07;;;;;;;2.28;2.13;;;;;;;23.23;37.22;95102.22;4920545;29;20040;-77
2021/09/01 10:12:36;;;;;;;4.45;1.50;;;;;;;23.13;37.65;95100.63;4903516;29;20424;-78
2021/09/01 10:15:02;;;;;;;2.17;1.85;;;;;;;23.02;38.19;95099.28;4903953;29;20044;-78
2021/09/01 10:17:28;;;;;;;51.90;21.23;;;;;;;22.96;37.88;95108.47;4903281;29;20504;-77
2021/09/01 10:19:53;;;;;;;10.57;1.75;;;;;;;23.07;37.55;95104.47;4870708;29;20040;-77
2021/09/01 10:22:19;;;;;;;3.10;1.77;;;;;;;23.13;37.24;95097.97;4900183;29;20047;-77
2021/09/01 10:24:45;;;;;;;2.90;2.00;;;;;;;23.09;38.00;95094.31;4900087;29;20145;-77
2021/09/01 10:27:16;;;;;;;4.13;1.90;;;;;;;23.14;36.43;95086.25;4917712;29;20032;-79
2021/09/01 10:29:52;;;;;;;1.60;1.50;;;;;;;23.10;37.07;95093.25;4919415;29;20040;-79
2021/09/01 10:32:27;;;;;;;8.38;1.77;;;;;;;23.13;37.21;95087.34;4917786;29;20040;-79
2021/09/01 10:35:15;;;;;;;6.22;1.80;;;;;;;23.14;37.84;95109.34;4919491;29;20044;-78
2021/09/01 10:37:53;;;;;;;2.30;1.52;;;;;;;23.19;37.08;95093.31;4917889;29;20075;-79
2021/09/01 10:40:21;;;;;;;1.50;1.40;;;;;;;23.04;36.61;95102.41;4901730;29;20127;-79
2021/09/01 10:42:49;;;;;;;1.40;1.30;;;;;;;22.90;37.03;95107.78;4918973;29;20036;-79
2021/09/01 10:45:15;;;;;;;4.13;1.58;;;;;;;22.80;37.16;95096.63;4918068;29;20048;-79
2021/09/01 10:47:50;;;;;;;5.18;1.73;;;;;;;22.75;37.78;95111.56;4899389;29;20412;-77
2021/09/01 10:50:36;;;;;;;4.53;2.40;;;;;;;22.77;36.96;95096.13;4916737;29;20040;-78
2021/09/01 10:53:22;;;;;;;7.95;1.40;;;;;;;22.73;36.73;95107.63;4900074;29;20131;-79
2021/09/01 10:55:48;;;;;;;2.65;1.73;;;;;;;22.69;36.44;95114.63;4916867;29;20080;-79
2021/09/01 10:58:15;;;;;;;2.55;2.00;;;;;;;22.67;35.81;95099.03;4917522;29;20041;-79
2021/09/01 11:00:41;;;;;;;1.80;1.70;;;;;;;22.68;36.68;95110.41;4919211;29;20054;-79
2021/09/01 11:03:07;;;;;;;3.90;1.50;;;;;;;22.73;36.29;95099.69;4901820;29;20426;-79
2021/09/01 11:05:32;;;;;;;3.97;1.42;;;;;;;22.80;36.98;95120.50;4919180;29;20066;-79
2021/09/01 11:07:58;;;;;;;3.13;1.45;;;;;;;22.91;36.38;95113.88;4902696;29;20040;-79
2021/09/01 11:10:24;;;;;;;5.97;1.60;;;;;;;22.87;34.74;95099.66;4902145;29;20036;-79
2021/09/01 11:12:56;;;;;;;2.35;1.38;;;;;;;22.80;35.39;95117.84;4902079;29;20476;-79
2021/09/01 11:15:22;;;;;;;1.42;1.33;;;;;;;22.72;36.26;95111.38;4918672;29;20040;-79
2021/09/01 11:17:47;;;;;;;5.05;1.40;;;;;;;22.66;35.34;95110.72;4901606;29;20179;-79
2021/09/01 11:20:13;;;;;;;1.75;1.42;;;;;;;22.61;35.91;95120.63;4918783;29;20036;-79
2021/09/01 11:22:38;;;;;;;2.58;1.52;;;;;;;22.57;34.84;95111.72;4919003;29;20055;-79
2021/09/01 11:25:11;;;;;;;7.88;1.40;;;;;;;22.63;35.46;95113.19;4918812;29;20090;-79
2021/09/01 11:27:44;;;;;;;1.48;1.42;;;;;;;22.68;35.20;95100.59;4902030;29;20044;-79
2021/09/01 11:30:11;;;;;;;4.88;1.77;;;;;;;22.79;36.17;95119.72;4917797;29;20071;-79
2021/09/01 11:32:37;;;;;;;5.53;2.03;;;;;;;22.84;35.59;95108.22;5012767;23;20050;-79
2021/09/01 11:35:05;;;;;;;4.60;2.03;;;;;;;22.82;35.52;95120.97;4996035;28;20120;-79
2021/09/01 11:37:31;;;;;;;3.05;1.77;;;;;;;22.75;36.04;95122.16;4980234;28;20038;-79
2021/09/01 11:39:56;;;;;;;2.05;1.83;;;;;;;22.74;35.24;95114.50;4959140;28;20034;-79